sensor_id;sensor_type;location;lat;lon;timestamp;pressure;altitude;pressure_sealevel;temperature;humidity
69955;BME280;57279;55.912;37.490;2023-03-14T00:00:49;98964.00;;;-1.36;61.99
69955;BME280;57279;55.912;37.490;2023-03-14T00:03:15;98958.72;;;-1.30;61.56
69955;BME280;57279;55.912;37.490;2023-03-14T00:05:41;98943.91;;;-1.24;62.54
69955;BME280;57279;55.912;37.490;2023-03-14T00:08:06;98935.81;;;-1.16;62.28
69955;BME280;57279;55.912;37.490;2023-03-14T00:10:32;98939.31;;;-1.09;61.63
69955;BME280;57279;55.912;37.490;2023-03-14T00:12:57;98926.06;;;-1.09;63.28
69955;BME280;57279;55.912;37.490;2023-03-14T00:15:23;98919.38;;;-1.05;62.31
69955;BME280;57279;55.912;37.490;2023-03-14T00:17:48;98913.25;;;-1.05;61.18
69955;BME280;57279;55.912;37.490;2023-03-14T00:20:14;98912.25;;;-1.04;61.15
69955;BME280;57279;55.912;37.490;2023-03-14T00:22:41;98902.06;;;-1.01;62.16
69955;BME280;57279;55.912;37.490;2023-03-14T00:25:08;98903.75;;;-0.93;62.19
69955;BME280;57279;55.912;37.490;2023-03-14T00:27:34;98896.41;;;-0.91;61.43
69955;BME280;57279;55.912;37.490;2023-03-14T00:30:00;98891.13;;;-0.84;61.81
69955;BME280;57279;55.912;37.490;2023-03-14T00:32:26;98890.53;;;-0.80;61.41
69955;BME280;57279;55.912;37.490;2023-03-14T00:34:51;98885.25;;;-0.73;61.09
69955;BME280;57279;55.912;37.490;2023-03-14T00:37:18;98882.00;;;-0.75;60.69
69955;BME280;57279;55.912;37.490;2023-03-14T00:39:43;98885.06;;;-0.71;60.84
69955;BME280;57279;55.912;37.490;2023-03-14T00:42:09;98881.19;;;-0.69;61.20
69955;BME280;57279;55.912;37.490;2023-03-14T00:44:38;98885.50;;;-0.68;61.36
69955;BME280;57279;55.912;37.490;2023-03-14T00:47:06;98887.94;;;-0.66;61.19
69955;BME280;57279;55.912;37.490;2023-03-14T00:49:32;98868.97;;;-0.70;61.56
69955;BME280;57279;55.912;37.490;2023-03-14T00:51:58;98875.72;;;-0.61;63.56
69955;BME280;57279;55.912;37.490;2023-03-14T00:54:23;98867.97;;;-0.55;62.87
69955;BME280;57279;55.912;37.490;2023-03-14T00:56:49;98858.63;;;-0.51;62.55
69955;BME280;57279;55.912;37.490;2023-03-14T00:59:15;98849.44;;;-0.42;63.65
69955;BME280;57279;55.912;37.490;2023-03-14T01:01:42;98850.47;;;-0.36;64.20
69955;BME280;57279;55.912;37.490;2023-03-14T01:04:07;98859.03;;;-0.34;63.56
69955;BME280;57279;55.912;37.490;2023-03-14T01:06:33;98843.34;;;-0.36;63.42
69955;BME280;57279;55.912;37.490;2023-03-14T01:09:00;98845.59;;;-0.40;64.41
69955;BME280;57279;55.912;37.490;2023-03-14T01:11:28;98854.78;;;-0.35;64.73
69955;BME280;57279;55.912;37.490;2023-03-14T01:13:57;98859.47;;;-0.31;65.26
69955;BME280;57279;55.912;37.490;2023-03-14T01:16:25;98855.78;;;-0.36;65.24
69955;BME280;57279;55.912;37.490;2023-03-14T01:18:51;98856.81;;;-0.37;65.64
69955;BME280;57279;55.912;37.490;2023-03-14T01:21:29;98843.75;;;-0.39;66.11
69955;BME280;57279;55.912;37.490;2023-03-14T01:23:58;98823.13;;;-0.37;66.82
69955;BME280;57279;55.912;37.490;2023-03-14T01:26:25;98805.19;;;-0.42;67.45
69955;BME280;57279;55.912;37.490;2023-03-14T01:28:53;98795.16;;;-0.46;68.26
69955;BME280;57279;55.912;37.490;2023-03-14T01:31:20;98785.19;;;-0.51;69.25
69955;BME280;57279;55.912;37.490;2023-03-14T01:33:46;98786.19;;;-0.52;70.23
69955;BME280;57279;55.912;37.490;2023-03-14T01:36:12;98783.94;;;-0.48;71.26
69955;BME280;57279;55.912;37.490;2023-03-14T01:38:39;98790.28;;;-0.43;71.62
69955;BME280;57279;55.912;37.490;2023-03-14T01:41:09;98783.97;;;-0.42;71.50
69955;BME280;57279;55.912;37.490;2023-03-14T01:43:37;98761.31;;;-0.44;71.89
69955;BME280;57279;55.912;37.490;2023-03-14T01:51:30;98772.94;;;-0.45;72.58
69955;BME280;57279;55.912;37.490;2023-03-14T01:54:06;98778.25;;;-0.45;72.83
69955;BME280;57279;55.912;37.490;2023-03-14T01:56:35;98767.00;;;-0.54;73.05
69955;BME280;57279;55.912;37.490;2023-03-14T01:59:03;98753.34;;;-0.44;73.90
69955;BME280;57279;55.912;37.490;2023-03-14T02:01:32;98742.72;;;-0.44;73.12
69955;BME280;57279;55.912;37.490;2023-03-14T02:04:01;98739.50;;;-0.40;73.13
69955;BME280;57279;55.912;37.490;2023-03-14T02:06:39;98740.69;;;-0.42;73.71
69955;BME280;57279;55.912;37.490;2023-03-14T02:09:07;98741.53;;;-0.42;73.81
69955;BME280;57279;55.912;37.490;2023-03-14T02:11:34;98737.03;;;-0.41;73.19
69955;BME280;57279;55.912;37.490;2023-03-14T02:14:07;98719.88;;;-0.52;73.96
69955;BME280;57279;55.912;37.490;2023-03-14T02:17:03;98708.47;;;-0.46;73.68
69955;BME280;57279;55.912;37.490;2023-03-14T02:22:53;98696.84;;;-0.58;74.21
69955;BME280;57279;55.912;37.490;2023-03-14T02:28:03;98684.00;;;-0.68;75.35
69955;BME280;57279;55.912;37.490;2023-03-14T02:30:30;98674.63;;;-0.70;75.86
69955;BME280;57279;55.912;37.490;2023-03-14T02:33:04;98685.63;;;-0.73;76.25
69955;BME280;57279;55.912;37.490;2023-03-14T02:41:00;98657.28;;;-0.66;77.36
69955;BME280;57279;55.912;37.490;2023-03-14T02:43:27;98652.19;;;-0.68;77.21
69955;BME280;57279;55.912;37.490;2023-03-14T02:46:00;98666.88;;;-0.58;77.45
69955;BME280;57279;55.912;37.490;2023-03-14T02:48:38;98662.75;;;-0.61;76.58
69955;BME280;57279;55.912;37.490;2023-03-14T02:51:05;98644.84;;;-0.59;76.69
69955;BME280;57279;55.912;37.490;2023-03-14T02:53:32;98653.41;;;-0.57;76.89
69955;BME280;57279;55.912;37.490;2023-03-14T02:56:03;98665.63;;;-0.56;76.91
69955;BME280;57279;55.912;37.490;2023-03-14T02:58:31;98662.97;;;-0.56;76.85
69955;BME280;57279;55.912;37.490;2023-03-14T03:01:11;98661.75;;;-0.47;77.29
69955;BME280;57279;55.912;37.490;2023-03-14T03:03:37;98671.56;;;-0.47;77.09
69955;BME280;57279;55.912;37.490;2023-03-14T03:06:03;98661.34;;;-0.44;77.22
69955;BME280;57279;55.912;37.490;2023-03-14T03:08:29;98658.50;;;-0.49;76.64
69955;BME280;57279;55.912;37.490;2023-03-14T03:10:57;98643.19;;;-0.47;76.79
69955;BME280;57279;55.912;37.490;2023-03-14T03:13:23;98638.69;;;-0.46;76.90
69955;BME280;57279;55.912;37.490;2023-03-14T03:15:52;98631.78;;;-0.47;76.97
69955;BME280;57279;55.912;37.490;2023-03-14T03:18:18;98632.38;;;-0.45;76.94
69955;BME280;57279;55.912;37.490;2023-03-14T03:20:43;98630.34;;;-0.43;77.11
69955;BME280;57279;55.912;37.490;2023-03-14T03:23:09;98627.06;;;-0.45;77.22
69955;BME280;57279;55.912;37.490;2023-03-14T03:25:37;98618.69;;;-0.42;77.37
69955;BME280;57279;55.912;37.490;2023-03-14T03:28:04;98615.88;;;-0.47;77.77
69955;BME280;57279;55.912;37.490;2023-03-14T03:30:37;98597.69;;;-0.44;78.06
69955;BME280;57279;55.912;37.490;2023-03-14T03:33:03;98592.78;;;-0.40;77.64
69955;BME280;57279;55.912;37.490;2023-03-14T03:35:29;98589.72;;;-0.37;77.48
69955;BME280;57279;55.912;37.490;2023-03-14T03:37:55;98595.22;;;-0.38;77.88
69955;BME280;57279;55.912;37.490;2023-03-14T03:40:21;98589.75;;;-0.44;77.54
69955;BME280;57279;55.912;37.490;2023-03-14T03:42:47;98575.03;;;-0.40;77.37
69955;BME280;57279;55.912;37.490;2023-03-14T03:45:13;98561.78;;;-0.40;77.91
69955;BME280;57279;55.912;37.490;2023-03-14T03:47:48;98565.28;;;-0.46;78.18
69955;BME280;57279;55.912;37.490;2023-03-14T03:50:14;98559.34;;;-0.48;78.46
69955;BME280;57279;55.912;37.490;2023-03-14T03:52:39;98559.53;;;-0.43;78.80
69955;BME280;57279;55.912;37.490;2023-03-14T03:55:05;98545.88;;;-0.40;78.76
69955;BME280;57279;55.912;37.490;2023-03-14T03:57:31;98559.94;;;-0.39;78.44
69955;BME280;57279;55.912;37.490;2023-03-14T03:59:57;98557.47;;;-0.34;78.51
69955;BME280;57279;55.912;37.490;2023-03-14T04:02:22;98546.22;;;-0.29;78.91
69955;BME280;57279;55.912;37.490;2023-03-14T04:04:49;98556.00;;;-0.23;78.58
69955;BME280;57279;55.912;37.490;2023-03-14T04:07:16;98554.94;;;-0.15;78.70
69955;BME280;57279;55.912;37.490;2023-03-14T04:09:43;98559.25;;;-0.14;78.24
69955;BME280;57279;55.912;37.490;2023-03-14T04:12:40;98557.59;;;-0.09;78.66
69955;BME280;57279;55.912;37.490;2023-03-14T04:15:10;98561.66;;;-0.06;78.63
69955;BME280;57279;55.912;37.490;2023-03-14T04:17:39;98543.25;;;-0.01;78.53
69955;BME280;57279;55.912;37.490;2023-03-14T04:20:06;98525.34;;;-0.06;78.43
69955;BME280;57279;55.912;37.490;2023-03-14T04:22:37;98529.78;;;0.01;78.55
69955;BME280;57279;55.912;37.490;2023-03-14T04:25:04;98532.41;;;0.07;78.24
69955;BME280;57279;55.912;37.490;2023-03-14T04:27:33;98535.44;;;0.17;78.46
69955;BME280;57279;55.912;37.490;2023-03-14T04:30:01;98524.53;;;0.26;78.32
69955;BME280;57279;55.912;37.490;2023-03-14T04:32:47;98515.34;;;0.28;77.84
69955;BME280;57279;55.912;37.490;2023-03-14T04:35:13;98503.91;;;0.28;77.47
69955;BME280;57279;55.912;37.490;2023-03-14T04:37:39;98508.81;;;0.31;77.82
69955;BME280;57279;55.912;37.490;2023-03-14T04:40:08;98500.38;;;0.34;77.90
69955;BME280;57279;55.912;37.490;2023-03-14T04:42:34;98490.53;;;0.41;78.00
69955;BME280;57279;55.912;37.490;2023-03-14T04:44:59;98486.28;;;0.40;77.64
69955;BME280;57279;55.912;37.490;2023-03-14T04:47:28;98480.72;;;0.42;77.79
69955;BME280;57279;55.912;37.490;2023-03-14T04:49:54;98473.34;;;0.44;77.88
69955;BME280;57279;55.912;37.490;2023-03-14T04:52:21;98474.19;;;0.44;78.21
69955;BME280;57279;55.912;37.490;2023-03-14T04:54:47;98467.69;;;0.40;78.26
69955;BME280;57279;55.912;37.490;2023-03-14T04:57:13;98455.00;;;0.42;78.65
69955;BME280;57279;55.912;37.490;2023-03-14T04:59:39;98463.09;;;0.47;78.86
69955;BME280;57279;55.912;37.490;2023-03-14T05:02:23;98453.69;;;0.51;78.96
69955;BME280;57279;55.912;37.490;2023-03-14T05:05:04;98452.88;;;0.51;78.98
69955;BME280;57279;55.912;37.490;2023-03-14T05:08:00;98443.88;;;0.52;78.98
69955;BME280;57279;55.912;37.490;2023-03-14T05:10:52;98444.47;;;0.54;78.74
69955;BME280;57279;55.912;37.490;2023-03-14T05:13:41;98444.88;;;0.57;79.02
69955;BME280;57279;55.912;37.490;2023-03-14T05:16:22;98434.00;;;0.59;78.93
69955;BME280;57279;55.912;37.490;2023-03-14T05:18:50;98444.63;;;0.59;79.08
69955;BME280;57279;55.912;37.490;2023-03-14T05:21:39;98451.16;;;0.63;79.35
69955;BME280;57279;55.912;37.490;2023-03-14T05:24:04;98442.31;;;0.69;79.13
69955;BME280;57279;55.912;37.490;2023-03-14T05:26:48;98447.53;;;0.76;79.05
69955;BME280;57279;55.912;37.490;2023-03-14T05:29:21;98442.31;;;0.69;78.99
69955;BME280;57279;55.912;37.490;2023-03-14T05:32:04;98457.97;;;0.77;79.31
69955;BME280;57279;55.912;37.490;2023-03-14T05:34:50;98459.97;;;0.82;79.36
69955;BME280;57279;55.912;37.490;2023-03-14T05:37:32;98473.84;;;0.84;79.09
69955;BME280;57279;55.912;37.490;2023-03-14T05:40:24;98459.91;;;0.89;78.79
69955;BME280;57279;55.912;37.490;2023-03-14T05:43:10;98467.00;;;0.95;78.81
69955;BME280;57279;55.912;37.490;2023-03-14T05:45:58;98471.88;;;0.98;78.33
69955;BME280;57279;55.912;37.490;2023-03-14T05:48:48;98457.63;;;0.92;78.66
69955;BME280;57279;55.912;37.490;2023-03-14T05:51:23;98467.53;;;1.04;78.72
69955;BME280;57279;55.912;37.490;2023-03-14T05:53:49;98465.53;;;0.99;78.10
69955;BME280;57279;55.912;37.490;2023-03-14T05:56:50;98480.53;;;1.12;78.57
69955;BME280;57279;55.912;37.490;2023-03-14T05:59:34;98470.28;;;1.15;78.45
69955;BME280;57279;55.912;37.490;2023-03-14T06:02:25;98467.03;;;1.13;78.17
69955;BME280;57279;55.912;37.490;2023-03-14T06:05:01;98465.13;;;1.21;78.06
69955;BME280;57279;55.912;37.490;2023-03-14T06:07:28;98445.22;;;1.23;77.64
69955;BME280;57279;55.912;37.490;2023-03-14T06:09:54;98452.25;;;1.36;77.61
69955;BME280;57279;55.912;37.490;2023-03-14T06:12:21;98472.94;;;1.34;77.23
69955;BME280;57279;55.912;37.490;2023-03-14T06:14:46;98452.16;;;1.43;77.47
69955;BME280;57279;55.912;37.490;2023-03-14T06:17:13;98451.94;;;1.44;77.26
69955;BME280;57279;55.912;37.490;2023-03-14T06:19:47;98450.63;;;1.53;77.26
69955;BME280;57279;55.912;37.490;2023-03-14T06:22:13;98450.88;;;1.64;77.31
69955;BME280;57279;55.912;37.490;2023-03-14T06:24:40;98448.53;;;1.74;77.01
69955;BME280;57279;55.912;37.490;2023-03-14T06:27:05;98442.50;;;1.79;76.48
69955;BME280;57279;55.912;37.490;2023-03-14T06:29:31;98449.63;;;1.85;76.49
69955;BME280;57279;55.912;37.490;2023-03-14T06:31:57;98461.88;;;1.86;76.29
69955;BME280;57279;55.912;37.490;2023-03-14T06:34:23;98451.00;;;1.87;76.00
69955;BME280;57279;55.912;37.490;2023-03-14T06:36:49;98454.69;;;1.86;75.94
69955;BME280;57279;55.912;37.490;2023-03-14T06:39:14;98450.06;;;1.82;75.84
69955;BME280;57279;55.912;37.490;2023-03-14T06:41:43;98457.09;;;1.76;75.35
69955;BME280;57279;55.912;37.490;2023-03-14T06:44:10;98449.19;;;1.69;75.68
69955;BME280;57279;55.912;37.490;2023-03-14T06:46:36;98450.66;;;1.84;75.51
69955;BME280;57279;55.912;37.490;2023-03-14T06:49:02;98448.03;;;1.95;75.70
69955;BME280;57279;55.912;37.490;2023-03-14T06:51:28;98435.19;;;1.92;75.44
69955;BME280;57279;55.912;37.490;2023-03-14T06:53:54;98426.66;;;2.02;75.69
69955;BME280;57279;55.912;37.490;2023-03-14T06:56:23;98441.47;;;1.98;75.71
69955;BME280;57279;55.912;37.490;2023-03-14T06:58:49;98442.50;;;2.09;75.97
69955;BME280;57279;55.912;37.490;2023-03-14T10:49:54;98411.75;;;3.19;73.33
69955;BME280;57279;55.912;37.490;2023-03-14T10:52:25;98404.97;;;3.40;73.88
69955;BME280;57279;55.912;37.490;2023-03-14T10:55:08;98399.28;;;3.48;72.53
69955;BME280;57279;55.912;37.490;2023-03-14T10:57:38;98392.47;;;3.69;72.19
69955;BME280;57279;55.912;37.490;2023-03-14T11:00:06;98398.09;;;3.85;71.05
69955;BME280;57279;55.912;37.490;2023-03-14T11:07:44;98398.06;;;4.14;70.59
69955;BME280;57279;55.912;37.490;2023-03-14T11:10:18;98404.22;;;4.14;69.67
69955;BME280;57279;55.912;37.490;2023-03-14T11:15:41;98416.59;;;4.20;68.08
69955;BME280;57279;55.912;37.490;2023-03-14T11:21:25;98403.09;;;4.27;67.96
69955;BME280;57279;55.912;37.490;2023-03-14T11:32:03;98427.50;;;4.47;66.30
69955;BME280;57279;55.912;37.490;2023-03-14T11:34:51;98428.63;;;4.52;66.07
69955;BME280;57279;55.912;37.490;2023-03-14T11:37:34;98408.94;;;4.58;66.54
69955;BME280;57279;55.912;37.490;2023-03-14T11:40:17;98420.88;;;4.72;66.72
69955;BME280;57279;55.912;37.490;2023-03-14T11:42:44;98423.97;;;4.81;65.42
69955;BME280;57279;55.912;37.490;2023-03-14T11:45:27;98414.06;;;4.81;64.06
69955;BME280;57279;55.912;37.490;2023-03-14T11:50:36;98419.75;;;4.85;64.00
69955;BME280;57279;55.912;37.490;2023-03-14T11:53:17;98421.16;;;4.87;63.65
69955;BME280;57279;55.912;37.490;2023-03-14T11:55:45;98424.13;;;4.91;63.85
69955;BME280;57279;55.912;37.490;2023-03-14T11:58:25;98420.88;;;4.89;63.23
69955;BME280;57279;55.912;37.490;2023-03-14T12:00:53;98433.53;;;4.94;63.15
69955;BME280;57279;55.912;37.490;2023-03-14T12:06:44;98436.44;;;4.92;62.66
69955;BME280;57279;55.912;37.490;2023-03-14T12:08:44;98444.03;;;5.00;62.46
69955;BME280;57279;55.912;37.490;2023-03-14T12:13:49;98440.81;;;4.98;62.04
69955;BME280;57279;55.912;37.490;2023-03-14T12:16:36;98436.75;;;4.96;62.33
69955;BME280;57279;55.912;37.490;2023-03-14T12:21:58;98420.94;;;5.11;62.19
69955;BME280;57279;55.912;37.490;2023-03-14T12:24:29;98427.72;;;5.19;62.01
69955;BME280;57279;55.912;37.490;2023-03-14T12:27:00;98436.06;;;5.22;61.86
69955;BME280;57279;55.912;37.490;2023-03-14T12:29:27;98444.09;;;5.22;61.45
69955;BME280;57279;55.912;37.490;2023-03-14T12:34:31;98439.22;;;5.19;61.17
69955;BME280;57279;55.912;37.490;2023-03-14T12:37:09;98443.03;;;5.23;61.52
69955;BME280;57279;55.912;37.490;2023-03-14T12:42:37;98448.81;;;5.15;62.17
69955;BME280;57279;55.912;37.490;2023-03-14T12:45:22;98441.66;;;5.21;61.67
69955;BME280;57279;55.912;37.490;2023-03-14T12:48:37;98436.06;;;5.22;61.05
69955;BME280;57279;55.912;37.490;2023-03-14T12:50:54;98424.81;;;5.20;61.22
69955;BME280;57279;55.912;37.490;2023-03-14T13:02:00;98432.59;;;5.22;62.09
69955;BME280;57279;55.912;37.490;2023-03-14T13:04:33;98424.28;;;5.23;62.31
69955;BME280;57279;55.912;37.490;2023-03-14T13:07:01;98420.25;;;5.21;62.53
69955;BME280;57279;55.912;37.490;2023-03-14T13:12:09;98421.31;;;5.20;62.35
69955;BME280;57279;55.912;37.490;2023-03-14T13:14:40;98423.25;;;5.24;62.39
69955;BME280;57279;55.912;37.490;2023-03-14T13:17:10;98423.41;;;5.18;61.85
69955;BME280;57279;55.912;37.490;2023-03-14T13:19:36;98433.88;;;5.19;61.73
69955;BME280;57279;55.912;37.490;2023-03-14T13:22:05;98445.22;;;5.26;61.94
69955;BME280;57279;55.912;37.490;2023-03-14T13:24:34;98441.97;;;5.24;61.51
69955;BME280;57279;55.912;37.490;2023-03-14T13:27:00;98437.50;;;5.30;61.47
69955;BME280;57279;55.912;37.490;2023-03-14T13:29:32;98438.94;;;5.38;60.62
69955;BME280;57279;55.912;37.490;2023-03-14T13:32:00;98433.19;;;5.29;60.45
69955;BME280;57279;55.912;37.490;2023-03-14T13:34:31;98435.31;;;5.27;60.00
69955;BME280;57279;55.912;37.490;2023-03-14T13:36:58;98437.75;;;5.28;59.69
69955;BME280;57279;55.912;37.490;2023-03-14T13:39:24;98443.91;;;5.29;59.64
69955;BME280;57279;55.912;37.490;2023-03-14T13:41:52;98444.16;;;5.27;59.42
69955;BME280;57279;55.912;37.490;2023-03-14T13:44:25;98439.06;;;5.26;58.94
69955;BME280;57279;55.912;37.490;2023-03-14T13:46:57;98445.22;;;5.26;59.67
69955;BME280;57279;55.912;37.490;2023-03-14T13:49:25;98444.00;;;5.17;58.92
69955;BME280;57279;55.912;37.490;2023-03-14T13:51:51;98433.31;;;5.17;58.85
69955;BME280;57279;55.912;37.490;2023-03-14T13:54:21;98435.75;;;5.19;58.33
69955;BME280;57279;55.912;37.490;2023-03-14T14:00:28;98443.22;;;5.17;58.33
69955;BME280;57279;55.912;37.490;2023-03-14T14:02:57;98445.13;;;5.21;58.51
69955;BME280;57279;55.912;37.490;2023-03-14T14:05:48;98435.25;;;5.22;58.67
69955;BME280;57279;55.912;37.490;2023-03-14T14:08:14;98434.38;;;5.16;57.27
69955;BME280;57279;55.912;37.490;2023-03-14T14:10:40;98445.09;;;5.16;57.83
69955;BME280;57279;55.912;37.490;2023-03-14T14:13:09;98447.00;;;5.21;58.07
69955;BME280;57279;55.912;37.490;2023-03-14T14:15:43;98445.66;;;5.18;57.82
69955;BME280;57279;55.912;37.490;2023-03-14T14:18:13;98438.91;;;5.16;57.64
69955;BME280;57279;55.912;37.490;2023-03-14T14:20:47;98439.66;;;5.11;57.71
69955;BME280;57279;55.912;37.490;2023-03-14T14:23:18;98450.69;;;5.15;58.67
69955;BME280;57279;55.912;37.490;2023-03-14T14:25:50;98438.84;;;5.11;57.71
69955;BME280;57279;55.912;37.490;2023-03-14T14:28:32;98440.69;;;5.10;57.63
69955;BME280;57279;55.912;37.490;2023-03-14T14:31:21;98453.59;;;5.13;57.51
69955;BME280;57279;55.912;37.490;2023-03-14T14:34:02;98450.13;;;5.13;57.49
69955;BME280;57279;55.912;37.490;2023-03-14T14:36:38;98457.06;;;5.14;57.54
69955;BME280;57279;55.912;37.490;2023-03-14T14:41:33;98462.38;;;5.08;56.96
69955;BME280;57279;55.912;37.490;2023-03-14T14:44:00;98466.88;;;5.08;57.31
69955;BME280;57279;55.912;37.490;2023-03-14T14:46:30;98457.03;;;5.08;56.80
69955;BME280;57279;55.912;37.490;2023-03-14T14:49:10;98461.22;;;5.04;57.14
69955;BME280;57279;55.912;37.490;2023-03-14T14:51:49;98455.56;;;5.01;57.48
69955;BME280;57279;55.912;37.490;2023-03-14T14:54:31;98460.41;;;5.04;57.74
69955;BME280;57279;55.912;37.490;2023-03-14T14:57:02;98455.81;;;4.99;57.40
69955;BME280;57279;55.912;37.490;2023-03-14T14:59:28;98450.69;;;4.98;57.57
69955;BME280;57279;55.912;37.490;2023-03-14T15:01:59;98448.03;;;4.98;57.50
69955;BME280;57279;55.912;37.490;2023-03-14T15:04:25;98447.84;;;5.04;58.01
69955;BME280;57279;55.912;37.490;2023-03-14T15:06:52;98445.44;;;5.03;57.98
69955;BME280;57279;55.912;37.490;2023-03-14T15:09:18;98451.34;;;5.05;57.73
69955;BME280;57279;55.912;37.490;2023-03-14T15:11:46;98460.41;;;5.04;57.57
69955;BME280;57279;55.912;37.490;2023-03-14T15:14:12;98458.88;;;5.08;57.45
69955;BME280;57279;55.912;37.490;2023-03-14T15:16:38;98454.91;;;5.11;57.91
69955;BME280;57279;55.912;37.490;2023-03-14T15:19:10;98457.03;;;5.08;57.56
69955;BME280;57279;55.912;37.490;2023-03-14T15:21:37;98451.59;;;5.03;57.79
69955;BME280;57279;55.912;37.490;2023-03-14T15:24:04;98450.22;;;5.01;57.19
69955;BME280;57279;55.912;37.490;2023-03-14T15:26:31;98437.09;;;4.99;57.91
69955;BME280;57279;55.912;37.490;2023-03-14T15:28:56;98458.50;;;4.99;57.36
69955;BME280;57279;55.912;37.490;2023-03-14T15:31:22;98446.97;;;4.99;57.28
69955;BME280;57279;55.912;37.490;2023-03-14T15:37:59;98455.25;;;4.97;57.22
69955;BME280;57279;55.912;37.490;2023-03-14T15:46:55;98471.31;;;4.97;57.83
69955;BME280;57279;55.912;37.490;2023-03-14T15:49:20;98472.91;;;4.98;58.22
69955;BME280;57279;55.912;37.490;2023-03-14T15:51:46;98465.13;;;4.97;57.76
69955;BME280;57279;55.912;37.490;2023-03-14T15:54:11;98469.91;;;4.95;58.20
69955;BME280;57279;55.912;37.490;2023-03-14T15:56:37;98469.66;;;4.96;57.66
69955;BME280;57279;55.912;37.490;2023-03-14T15:59:03;98482.97;;;4.91;57.26
69955;BME280;57279;55.912;37.490;2023-03-14T16:01:29;98477.78;;;4.84;57.53
69955;BME280;57279;55.912;37.490;2023-03-14T16:03:54;98469.28;;;4.87;57.63
69955;BME280;57279;55.912;37.490;2023-03-14T16:06:21;98482.72;;;4.93;58.28
69955;BME280;57279;55.912;37.490;2023-03-14T16:08:46;98489.72;;;4.94;57.53
69955;BME280;57279;55.912;37.490;2023-03-14T16:11:14;98487.28;;;4.92;57.62
69955;BME280;57279;55.912;37.490;2023-03-14T16:13:40;98490.28;;;4.96;57.90
69955;BME280;57279;55.912;37.490;2023-03-14T16:16:07;98494.50;;;4.92;57.38
69955;BME280;57279;55.912;37.490;2023-03-14T16:18:35;98507.88;;;4.92;57.54
69955;BME280;57279;55.912;37.490;2023-03-14T16:21:12;98512.16;;;4.93;57.38
69955;BME280;57279;55.912;37.490;2023-03-14T16:23:38;98530.31;;;4.90;57.31
69955;BME280;57279;55.912;37.490;2023-03-14T16:26:09;98530.06;;;4.92;57.26
69955;BME280;57279;55.912;37.490;2023-03-14T16:28:36;98539.41;;;4.89;57.25
69955;BME280;57279;55.912;37.490;2023-03-14T16:31:03;98543.28;;;4.82;57.13
69955;BME280;57279;55.912;37.490;2023-03-14T16:33:31;98541.50;;;4.87;57.30
69955;BME280;57279;55.912;37.490;2023-03-14T16:35:59;98538.75;;;4.82;57.30
69955;BME280;57279;55.912;37.490;2023-03-14T16:38:25;98546.19;;;4.80;57.30
69955;BME280;57279;55.912;37.490;2023-03-14T16:41:23;98545.13;;;4.81;57.28
69955;BME280;57279;55.912;37.490;2023-03-14T16:43:49;98544.91;;;4.83;57.94
69955;BME280;57279;55.912;37.490;2023-03-14T16:46:17;98539.63;;;4.88;57.66
69955;BME280;57279;55.912;37.490;2023-03-14T16:48:44;98542.63;;;4.92;57.92
69955;BME280;57279;55.912;37.490;2023-03-14T16:51:10;98538.34;;;4.90;58.16
69955;BME280;57279;55.912;37.490;2023-03-14T16:53:35;98543.69;;;4.90;57.19
69955;BME280;57279;55.912;37.490;2023-03-14T16:56:01;98542.31;;;4.88;57.25
69955;BME280;57279;55.912;37.490;2023-03-14T16:58:27;98535.31;;;4.87;57.17
69955;BME280;57279;55.912;37.490;2023-03-14T17:00:55;98542.22;;;4.83;57.40
69955;BME280;57279;55.912;37.490;2023-03-14T17:03:22;98545.69;;;4.83;57.54
69955;BME280;57279;55.912;37.490;2023-03-14T17:05:50;98549.53;;;4.87;57.03
69955;BME280;57279;55.912;37.490;2023-03-14T17:08:18;98548.13;;;4.85;57.70
69955;BME280;57279;55.912;37.490;2023-03-14T17:10:44;98540.91;;;4.85;57.46
69955;BME280;57279;55.912;37.490;2023-03-14T17:13:11;98552.13;;;4.82;57.29
69955;BME280;57279;55.912;37.490;2023-03-14T17:15:37;98538.19;;;4.80;56.70
69955;BME280;57279;55.912;37.490;2023-03-14T17:18:03;98542.06;;;4.73;57.00
69955;BME280;57279;55.912;37.490;2023-03-14T17:20:30;98555.56;;;4.66;56.78
69955;BME280;57279;55.912;37.490;2023-03-14T17:22:55;98547.66;;;4.71;56.97
69955;BME280;57279;55.912;37.490;2023-03-14T17:25:21;98546.00;;;4.70;57.19
69955;BME280;57279;55.912;37.490;2023-03-14T17:27:47;98539.06;;;4.69;56.82
69955;BME280;57279;55.912;37.490;2023-03-14T17:30:12;98547.31;;;4.67;56.97
69955;BME280;57279;55.912;37.490;2023-03-14T17:32:38;98543.03;;;4.66;57.23
69955;BME280;57279;55.912;37.490;2023-03-14T17:35:04;98562.22;;;4.63;56.56
69955;BME280;57279;55.912;37.490;2023-03-14T17:37:30;98562.91;;;4.59;57.13
69955;BME280;57279;55.912;37.490;2023-03-14T17:39:55;98557.91;;;4.62;56.99
69955;BME280;57279;55.912;37.490;2023-03-14T17:42:27;98558.31;;;4.54;56.67
69955;BME280;57279;55.912;37.490;2023-03-14T17:44:52;98548.00;;;4.46;57.21
69955;BME280;57279;55.912;37.490;2023-03-14T17:47:18;98544.03;;;4.48;57.16
69955;BME280;57279;55.912;37.490;2023-03-14T17:49:44;98552.16;;;4.54;57.47
69955;BME280;57279;55.912;37.490;2023-03-14T17:52:12;98552.16;;;4.54;57.10
69955;BME280;57279;55.912;37.490;2023-03-14T17:54:38;98549.81;;;4.57;57.11
69955;BME280;57279;55.912;37.490;2023-03-14T17:57:04;98564.78;;;4.58;57.10
69955;BME280;57279;55.912;37.490;2023-03-14T17:59:30;98569.56;;;4.56;57.03
69955;BME280;57279;55.912;37.490;2023-03-14T18:01:56;98562.50;;;4.50;57.04
69955;BME280;57279;55.912;37.490;2023-03-14T18:04:21;98562.00;;;4.53;57.06
69955;BME280;57279;55.912;37.490;2023-03-14T18:06:47;98571.34;;;4.50;57.03
69955;BME280;57279;55.912;37.490;2023-03-14T18:09:13;98563.94;;;4.41;56.93
69955;BME280;57279;55.912;37.490;2023-03-14T18:11:38;98565.09;;;4.45;57.47
69955;BME280;57279;55.912;37.490;2023-03-14T18:14:04;98561.59;;;4.44;57.44
69955;BME280;57279;55.912;37.490;2023-03-14T18:16:33;98555.94;;;4.41;57.31
69955;BME280;57279;55.912;37.490;2023-03-14T18:18:58;98569.06;;;4.42;57.53
69955;BME280;57279;55.912;37.490;2023-03-14T18:21:25;98564.06;;;4.46;57.13